Time;durP1;ratioP1;P1;durP2;ratioP2;P2;SDS_P1;SDS_P2;PMS_P1;PMS_P2;Temp;Humidity;BMP_temperature;BMP_pressure;BME280_temperature;BME280_humidity;BME280_pressure;Samples;Min_cycle;Max_cycle;Signal;HPM_P1;HPM_P2
2022/12/10 00:00:15;;;;;;;77.30;55.20;;;;;;;0.96;76.86;99494.48;108229;1280;23051;-78
2022/12/10 00:03:04;;;;;;;81.90;55.40;;;;;;;0.93;76.87;99492.96;108292;1280;21836;-75
2022/12/10 00:05:34;;;;;;;77.80;55.40;;;;;;;0.96;76.85;99497.73;108209;1280;22118;-77
2022/12/10 00:08:03;;;;;;;85.30;56.70;;;;;;;0.96;76.84;99499.98;108299;1278;21920;-76
2022/12/10 00:10:32;;;;;;;77.90;54.00;;;;;;;0.97;76.88;99504.58;108128;1280;21951;-77
2022/12/10 00:13:02;;;;;;;75.20;53.40;;;;;;;0.98;76.86;99504.22;108306;1280;21944;-77
2022/12/10 00:15:35;;;;;;;78.20;57.10;;;;;;;0.99;76.82;99502.31;108164;1280;23087;-76
2022/12/10 00:18:04;;;;;;;76.20;53.30;;;;;;;1.01;76.76;99503.67;108457;1279;22389;-76
2022/12/10 00:20:33;;;;;;;71.10;49.90;;;;;;;1.02;76.74;99501.77;108481;1278;22343;-76
2022/12/10 00:23:02;;;;;;;67.70;49.50;;;;;;;1.00;76.63;99504.55;108440;1280;23579;-76
2022/12/10 00:25:32;;;;;;;69.70;48.90;;;;;;;0.99;76.55;99505.23;108525;1280;22011;-76
2022/12/10 00:28:01;;;;;;;70.00;49.00;;;;;;;0.98;76.64;99507.46;108372;1280;23680;-76
2022/12/10 00:30:29;;;;;;;68.40;50.10;;;;;;;1.00;76.64;99504.53;108277;1280;23597;-76
2022/12/10 00:32:58;;;;;;;68.60;51.00;;;;;;;1.04;76.64;99507.75;108179;1280;21929;-75
2022/12/10 00:35:27;;;;;;;70.70;49.80;;;;;;;1.04;76.52;99506.70;108044;1275;22013;-78
2022/12/10 00:37:56;;;;;;;70.80;48.90;;;;;;;1.05;76.54;99508.77;107993;1286;21934;-75
2022/12/10 00:40:25;;;;;;;68.90;49.80;;;;;;;1.06;76.50;99508.41;108041;1284;23063;-75
2022/12/10 00:42:53;;;;;;;76.70;53.50;;;;;;;1.06;76.43;99509.61;108019;1283;21943;-76
2022/12/10 00:45:22;;;;;;;73.30;52.30;;;;;;;1.05;76.21;99514.42;107977;1281;23116;-76
2022/12/10 00:47:51;;;;;;;72.90;52.50;;;;;;;1.03;76.29;99516.15;107921;1283;23591;-75
2022/12/10 00:50:20;;;;;;;73.70;51.50;;;;;;;1.02;76.32;99514.10;108049;1282;23069;-77
2022/12/10 00:52:49;;;;;;;75.00;50.30;;;;;;;1.01;76.27;99512.08;108029;1282;21937;-76
2022/12/10 00:55:19;;;;;;;75.30;52.60;;;;;;;0.98;76.31;99513.14;108303;1280;22124;-76
2022/12/10 00:57:48;;;;;;;70.40;50.10;;;;;;;0.97;76.31;99514.85;108464;1280;24329;-78
2022/12/10 01:00:17;;;;;;;68.00;48.70;;;;;;;0.99;76.36;99513.45;108302;1280;21934;-76
2022/12/10 01:02:46;;;;;;;71.70;50.00;;;;;;;1.00;76.37;99514.81;108349;1280;23603;-76
2022/12/10 01:05:14;;;;;;;77.30;51.10;;;;;;;0.99;76.25;99516.04;108199;1280;21938;-75
2022/12/10 01:07:43;;;;;;;69.10;49.80;;;;;;;0.99;76.25;99515.52;108125;1280;23840;-76
2022/12/10 01:10:12;;;;;;;75.60;52.80;;;;;;;0.98;76.27;99516.55;108163;1280;21934;-75
2022/12/10 01:12:41;;;;;;;77.20;53.00;;;;;;;0.98;76.26;99521.17;108166;1280;23737;-76
2022/12/10 01:15:10;;;;;;;72.00;50.10;;;;;;;0.99;76.31;99523.06;108400;1280;21966;-76
2022/12/10 01:17:38;;;;;;;74.40;52.80;;;;;;;0.99;76.20;99523.05;108163;1280;23702;-75
2022/12/10 01:20:08;;;;;;;74.20;53.90;;;;;;;0.97;76.19;99523.94;108378;1280;21949;-76
2022/12/10 01:22:38;;;;;;;76.70;55.50;;;;;;;0.98;76.24;99522.56;108447;1280;21959;-75
2022/12/10 01:25:07;;;;;;;80.70;54.90;;;;;;;0.96;76.24;99524.80;108245;1280;21938;-76
2022/12/10 01:27:36;;;;;;;84.20;56.40;;;;;;;0.95;76.30;99528.58;108251;1280;21987;-76
2022/12/10 01:30:05;;;;;;;85.80;57.90;;;;;;;0.93;76.22;99525.86;108413;1280;21948;-75
2022/12/10 01:32:37;;;;;;;91.40;58.80;;;;;;;0.87;76.16;99517.89;108437;1280;22273;-77
2022/12/10 01:35:08;;;;;;;87.80;58.00;;;;;;;0.83;76.18;99517.77;108418;1280;21930;-75
2022/12/10 01:37:36;;;;;;;84.40;57.50;;;;;;;0.80;76.23;99519.52;108418;1280;22013;-76
2022/12/10 01:40:08;;;;;;;82.50;58.10;;;;;;;0.77;76.27;99519.38;108208;1280;23582;-75
2022/12/10 01:42:37;;;;;;;80.80;55.90;;;;;;;0.78;76.41;99523.47;108311;1280;21921;-76
2022/12/10 01:45:12;;;;;;;83.20;55.70;;;;;;;0.81;76.41;99519.50;108431;1280;21940;-76
2022/12/10 01:47:41;;;;;;;80.80;57.20;;;;;;;0.82;76.42;99521.20;108214;1279;22179;-75
2022/12/10 01:50:10;;;;;;;76.60;56.20;;;;;;;0.83;76.36;99518.79;108144;1280;23296;-76
2022/12/10 01:52:39;;;;;;;82.80;57.50;;;;;;;0.84;76.36;99519.80;108118;1279;22530;-77
2022/12/10 01:55:40;;;;;;;83.90;57.00;;;;;;;0.85;76.44;99518.08;108206;1280;21924;-75
2022/12/10 01:58:12;;;;;;;84.10;56.60;;;;;;;0.85;76.52;99519.95;108170;1278;24279;-75
2022/12/10 02:01:31;;;;;;;;;;;;;;;0.86;76.41;99517.91;108137;1280;23556;-75
2022/12/10 02:04:09;;;;;;;79.80;54.60;;;;;;;0.74;76.60;99510.16;107703;1289;23077;-75
2022/12/10 02:06:53;;;;;;;85.60;57.10;;;;;;;0.71;76.74;99506.59;107677;1284;21943;-74
2022/12/10 02:09:49;;;;;;;81.50;59.10;;;;;;;0.74;76.65;99501.77;107722;1289;23595;-75
2022/12/10 02:12:35;;;;;;;80.90;56.20;;;;;;;0.71;76.58;99497.67;107702;1289;21949;-77
2022/12/10 02:15:15;;;;;;;80.50;56.50;;;;;;;0.70;76.59;99499.41;107565;1289;21961;-75
2022/12/10 02:17:55;;;;;;;77.30;54.40;;;;;;;0.73;76.58;99502.13;107783;1288;23107;-75
2022/12/10 02:20:37;;;;;;;68.90;49.70;;;;;;;0.72;76.59;99502.81;107745;1289;21939;-75
2022/12/10 02:23:31;;;;;;;73.30;54.40;;;;;;;0.69;76.53;99505.92;107721;1289;23728;-76
2022/12/10 02:26:19;;;;;;;74.70;53.60;;;;;;;0.71;76.60;99508.66;107737;1289;22580;-75
2022/12/10 02:29:16;;;;;;;71.30;52.20;;;;;;;0.72;76.63;99507.95;107685;1289;22304;-75
2022/12/10 02:32:08;;;;;;;74.00;53.20;;;;;;;0.73;76.59;99505.54;107666;1288;21947;-75
2022/12/10 02:34:43;;;;;;;72.10;55.90;;;;;;;0.74;76.63;99505.52;107693;1289;22086;-76
2022/12/10 02:37:20;;;;;;;80.40;60.30;;;;;;;0.77;76.60;99506.01;107715;1281;24146;-75
2022/12/10 02:39:56;;;;;;;87.70;64.40;;;;;;;0.77;76.56;99504.29;107705;1286;22012;-76
2022/12/10 02:42:30;;;;;;;77.90;60.00;;;;;;;0.77;76.51;99505.33;108253;1280;21943;-75
2022/12/10 02:44:59;;;;;;;;;;;;;;;0.79;76.52;99503.42;108246;1280;23572;-75
2022/12/10 02:47:29;;;;;;;82.40;59.90;;;;;;;0.73;76.55;99505.88;108232;1280;22169;-75
2022/12/10 02:49:59;;;;;;;83.70;60.90;;;;;;;0.74;76.67;99505.52;108295;1280;23583;-75
2022/12/10 02:52:29;;;;;;;83.80;63.40;;;;;;;0.78;76.67;99509.95;108100;1280;23606;-76
2022/12/10 02:54:58;;;;;;;84.20;60.30;;;;;;;0.77;76.54;99514.23;108465;1276;21936;-77
2022/12/10 02:57:56;;;;;;;78.70;59.20;;;;;;;0.75;76.43;99514.77;108142;1280;21937;-76
2022/12/10 03:00:25;;;;;;;75.80;57.90;;;;;;;0.74;76.51;99511.17;108419;1278;23045;-77
2022/12/10 03:03:13;;;;;;;72.00;55.20;;;;;;;0.74;76.56;99513.41;108224;1280;23036;-77
2022/12/10 03:06:07;;;;;;;79.90;57.80;;;;;;;0.76;76.59;99511.68;108242;1280;21935;-76
2022/12/10 03:09:02;;;;;;;68.10;53.10;;;;;;;0.75;76.43;99514.24;108197;1280;23611;-77
2022/12/10 03:11:31;;;;;;;66.60;51.30;;;;;;;0.72;76.34;99515.66;108256;1280;21939;-76
2022/12/10 03:14:13;;;;;;;70.10;53.00;;;;;;;0.72;76.53;99510.02;108148;1280;21998;-75
2022/12/10 03:16:46;;;;;;;68.40;49.50;;;;;;;0.71;76.48;99510.02;108280;1280;23100;-76
2022/12/10 03:19:21;;;;;;;68.50;51.90;;;;;;;0.70;76.43;99513.61;108496;1272;23616;-75
2022/12/10 03:21:53;;;;;;;67.30;50.70;;;;;;;0.68;76.31;99512.79;108297;1278;22512;-74
2022/12/10 03:24:27;;;;;;;76.40;56.50;;;;;;;0.68;76.38;99517.40;108362;1278;22167;-75
2022/12/10 03:26:58;;;;;;;71.20;54.60;;;;;;;0.68;76.36;99518.44;108216;1280;23685;-75
2022/12/10 03:29:56;;;;;;;75.60;57.80;;;;;;;0.70;76.35;99516.71;108262;1281;21934;-75
2022/12/10 03:32:28;;;;;;;73.30;56.10;;;;;;;0.71;76.39;99519.09;108452;1280;23494;-78
2022/12/10 03:34:59;;;;;;;71.30;57.50;;;;;;;0.72;76.35;99522.51;108180;1280;23715;-75
2022/12/10 03:37:29;;;;;;;71.80;55.60;;;;;;;0.73;76.27;99521.13;108400;1280;22064;-74
2022/12/10 03:39:59;;;;;;;75.30;57.40;;;;;;;0.73;76.20;99519.77;108434;1280;21947;-76
2022/12/10 03:42:28;;;;;;;78.10;59.00;;;;;;;0.71;76.17;99522.17;108099;1281;21955;-76
2022/12/10 03:44:56;;;;;;;65.10;54.60;;;;;;;0.69;76.20;99529.05;108152;1280;22760;-77
2022/12/10 03:47:25;;;;;;;64.30;52.60;;;;;;;0.68;76.23;99531.45;108082;1280;22740;-76
2022/12/10 03:49:54;;;;;;;64.10;53.30;;;;;;;0.67;76.18;99536.61;108425;1278;22928;-75
2022/12/10 03:52:22;;;;;;;67.60;52.80;;;;;;;0.66;76.22;99542.77;108423;1280;21935;-75
2022/12/10 03:54:51;;;;;;;62.50;51.80;;;;;;;0.64;76.15;99541.95;108209;1280;21939;-75
2022/12/10 03:57:21;;;;;;;57.10;48.50;;;;;;;0.63;76.21;99543.16;108260;1281;22726;-75
2022/12/10 03:59:50;;;;;;;54.30;46.70;;;;;;;0.63;76.25;99542.13;108211;1280;21937;-75
2022/12/10 04:02:19;;;;;;;57.60;47.50;;;;;;;0.62;76.19;99542.81;108135;1277;23042;-75
2022/12/10 04:04:47;;;;;;;50.90;44.30;;;;;;;0.63;76.30;99544.53;108112;1280;22019;-75
2022/12/10 04:07:18;;;;;;;55.80;47.70;;;;;;;0.63;76.24;99545.20;108289;1278;21912;-74
2022/12/10 04:09:47;;;;;;;57.80;47.30;;;;;;;0.62;76.18;99546.94;108414;1280;22704;-72
2022/12/10 04:12:15;;;;;;;51.20;43.60;;;;;;;0.62;76.23;99542.65;108387;1280;22209;-76
2022/12/10 04:17:33;;;;;;;57.00;49.40;;;;;;;0.59;76.15;99545.42;108194;1280;21972;-75
2022/12/10 04:20:03;;;;;;;57.80;50.10;;;;;;;0.59;76.26;99545.76;108295;1280;23082;-75
2022/12/10 04:28:06;;;;;;;52.80;45.20;;;;;;;0.58;76.21;99538.41;108264;1280;21924;-75
2022/12/10 04:30:34;;;;;;;52.40;45.30;;;;;;;0.57;76.09;99537.73;108441;1280;22173;-75
2022/12/10 04:33:03;;;;;;;55.20;47.00;;;;;;;0.54;76.08;99535.02;108195;1280;21940;-76
2022/12/10 04:35:32;;;;;;;55.90;46.90;;;;;;;0.53;76.16;99535.38;108202;1281;23575;-76
2022/12/10 04:38:01;;;;;;;51.00;45.40;;;;;;;0.53;76.19;99533.84;108378;1280;23681;-75
2022/12/10 04:40:29;;;;;;;54.80;45.50;;;;;;;0.52;76.16;99533.33;108135;1281;22025;-75
2022/12/10 04:42:58;;;;;;;50.90;45.30;;;;;;;0.51;76.10;99535.55;108352;1280;23748;-75
2022/12/10 04:45:27;;;;;;;54.90;47.10;;;;;;;0.47;75.96;99535.78;108358;1280;23046;-75
2022/12/10 04:47:56;;;;;;;49.80;43.20;;;;;;;0.46;76.03;99539.73;108024;1280;21960;-74
2022/12/10 04:50:25;;;;;;;52.90;46.70;;;;;;;0.44;76.01;99538.38;108209;1280;21941;-76
2022/12/10 04:52:53;;;;;;;54.60;46.70;;;;;;;0.41;76.00;99543.36;108215;1281;23683;-75
2022/12/10 04:55:22;;;;;;;49.20;43.60;;;;;;;0.40;75.99;99544.92;108419;1279;21942;-76
2022/12/10 04:57:51;;;;;;;49.90;44.60;;;;;;;0.39;76.00;99551.44;108245;1281;23146;-76
2022/12/10 05:00:20;;;;;;;51.00;45.10;;;;;;;0.35;76.06;99552.66;108376;1266;23092;-75
2022/12/10 05:02:49;;;;;;;52.40;45.30;;;;;;;0.35;76.03;99555.73;108055;1283;22730;-76
2022/12/10 05:05:18;;;;;;;52.00;43.40;;;;;;;0.37;76.18;99554.53;108305;1272;23812;-76
2022/12/10 05:07:46;;;;;;;50.40;44.90;;;;;;;0.42;76.32;99555.17;108128;1280;23785;-74
2022/12/10 05:10:15;;;;;;;48.00;42.70;;;;;;;0.45;76.21;99556.52;108021;1283;23058;-75
2022/12/10 05:12:44;;;;;;;49.70;44.30;;;;;;;0.47;76.18;99558.55;108273;1280;23586;-76
2022/12/10 05:15:13;;;;;;;48.80;43.40;;;;;;;0.49;76.26;99559.73;108089;1283;21933;-79
2022/12/10 05:17:42;;;;;;;49.60;44.30;;;;;;;0.51;76.25;99563.83;107641;1284;22305;-78
2022/12/10 05:20:11;;;;;;;51.70;45.90;;;;;;;0.51;76.22;99567.75;107662;1286;22758;-77
2022/12/10 05:25:27;;;;;;;49.50;42.50;;;;;;;0.51;76.17;99578.54;107928;1285;23085;-77
2022/12/10 05:27:55;;;;;;;53.50;43.90;;;;;;;0.50;76.06;99582.82;107675;1288;21945;-77
2022/12/10 05:30:24;;;;;;;54.10;46.40;;;;;;;0.50;76.12;99591.39;107681;1286;24493;-78
2022/12/10 05:32:53;;;;;;;51.50;45.80;;;;;;;0.51;76.09;99588.98;107924;1277;22048;-78
2022/12/10 05:35:21;;;;;;;51.50;45.20;;;;;;;0.53;76.12;99585.89;108065;1279;21939;-78
2022/12/10 05:37:50;;;;;;;55.70;45.70;;;;;;;0.54;76.02;99587.08;108148;1281;21941;-78
2022/12/10 05:40:19;;;;;;;50.60;45.10;;;;;;;0.54;75.99;99589.48;108095;1280;21935;-79
2022/12/10 05:42:48;;;;;;;51.80;44.00;;;;;;;0.53;75.93;99589.14;108103;1280;23678;-76
2022/12/10 05:45:17;;;;;;;51.10;44.30;;;;;;;0.52;76.00;99584.70;108196;1281;21962;-76
2022/12/10 05:47:45;;;;;;;52.80;43.80;;;;;;;0.53;75.99;99584.52;108387;1280;21939;-77
2022/12/10 05:50:14;;;;;;;50.70;44.70;;;;;;;0.54;75.97;99580.58;108415;1280;23676;-76
2022/12/10 05:52:43;;;;;;;56.70;46.40;;;;;;;0.54;75.85;99579.70;108510;1275;21946;-76
2022/12/10 05:55:12;;;;;;;52.20;43.90;;;;;;;0.54;75.74;99578.52;108251;1279;21953;-75
2022/12/10 05:57:41;;;;;;;51.40;45.00;;;;;;;0.53;75.76;99584.16;108211;1282;21932;-76
2022/12/10 06:00:12;;;;;;;52.10;46.10;;;;;;;0.55;75.73;99586.04;108434;1280;21932;-75
2022/12/10 06:02:40;;;;;;;50.00;44.60;;;;;;;0.54;75.70;99586.89;108394;1280;23078;-76
2022/12/10 06:05:09;;;;;;;49.10;43.50;;;;;;;0.55;75.71;99585.68;108306;1279;21938;-75
2022/12/10 06:07:38;;;;;;;50.70;43.20;;;;;;;0.53;75.61;99579.73;108411;1281;21940;-76
2022/12/10 06:10:07;;;;;;;46.50;41.40;;;;;;;0.52;75.57;99581.78;108429;1280;21927;-77
2022/12/10 06:12:38;;;;;;;47.10;41.30;;;;;;;0.53;75.61;99578.52;108498;1280;23605;-76
2022/12/10 06:15:07;;;;;;;48.50;41.70;;;;;;;0.56;75.55;99580.38;107992;1286;21936;-77
2022/12/10 06:17:36;;;;;;;45.50;40.60;;;;;;;0.57;75.50;99582.08;108121;1281;22083;-76
2022/12/10 06:20:06;;;;;;;48.10;42.90;;;;;;;0.59;75.50;99586.34;107819;1283;21998;-77
2022/12/10 06:22:35;;;;;;;50.50;44.10;;;;;;;0.63;75.57;99588.70;108128;1285;23833;-76
2022/12/10 06:25:06;;;;;;;47.10;41.90;;;;;;;0.65;75.47;99590.39;108030;1286;21951;-76
2022/12/10 06:27:34;;;;;;;52.40;46.20;;;;;;;0.68;75.44;99588.66;107850;1286;23588;-76
2022/12/10 06:30:08;;;;;;;50.40;44.80;;;;;;;0.71;75.38;99588.63;107812;1286;21946;-77
2022/12/10 06:32:37;;;;;;;;;;;;;;;0.72;75.20;99586.73;108103;1280;21999;-76
2022/12/10 06:35:07;;;;;;;50.20;43.30;;;;;;;0.62;75.28;99582.20;108511;1280;21947;-76
2022/12/10 06:37:37;;;;;;;50.50;43.70;;;;;;;0.58;75.20;99581.05;108418;1280;21990;-76
2022/12/10 06:40:07;;;;;;;52.00;44.20;;;;;;;0.59;75.25;99584.12;108418;1280;23601;-77
2022/12/10 06:42:36;;;;;;;51.00;45.40;;;;;;;0.62;75.35;99588.54;108171;1281;21954;-76
2022/12/10 06:45:05;;;;;;;51.40;46.00;;;;;;;0.67;75.40;99591.41;108471;1280;23080;-77
2022/12/10 06:47:34;;;;;;;51.10;44.50;;;;;;;0.70;75.25;99592.23;108111;1280;23989;-75
2022/12/10 06:50:10;;;;;;;53.70;45.50;;;;;;;0.72;75.19;99598.20;108481;1280;21930;-76
2022/12/10 06:52:40;;;;;;;50.80;45.20;;;;;;;0.72;75.01;99598.02;108499;1275;22136;-74
2022/12/10 06:55:09;;;;;;;51.00;45.40;;;;;;;0.72;74.95;99598.73;108508;1280;21974;-75
2022/12/10 06:57:39;;;;;;;50.50;45.10;;;;;;;0.70;74.88;99598.40;108062;1281;23685;-77
2022/12/10 07:00:08;;;;;;;51.40;45.80;;;;;;;0.69;74.89;99599.27;108372;1281;22742;-78
2022/12/10 07:02:37;;;;;;;53.70;47.80;;;;;;;0.67;74.78;99598.60;108443;1280;23878;-81
2022/12/10 07:05:07;;;;;;;55.70;45.50;;;;;;;0.65;74.82;99597.95;108451;1280;21936;-76
2022/12/10 07:07:36;;;;;;;49.80;44.50;;;;;;;0.67;74.94;99601.68;108500;1279;21925;-77
2022/12/10 07:10:06;;;;;;;55.80;48.80;;;;;;;0.69;74.95;99603.02;108464;1279;21967;-77
2022/12/10 07:12:35;;;;;;;56.50;48.80;;;;;;;0.70;74.86;99602.50;108305;1281;22097;-77
2022/12/10 07:15:05;;;;;;;55.80;46.80;;;;;;;0.70;74.75;99598.23;108412;1280;21964;-77
2022/12/10 07:17:34;;;;;;;55.00;47.80;;;;;;;0.70;74.79;99597.89;108479;1280;23759;-77
2022/12/10 07:20:03;;;;;;;54.70;48.50;;;;;;;0.68;74.69;99598.59;108526;1280;23819;-77
2022/12/10 07:22:32;;;;;;;55.00;48.40;;;;;;;0.68;74.74;99595.84;108207;1281;23816;-78
2022/12/10 07:25:03;;;;;;;52.10;45.10;;;;;;;0.67;74.69;99594.48;108171;1280;21951;-77
2022/12/10 07:27:31;;;;;;;54.20;47.40;;;;;;;0.66;74.65;99595.01;108472;1280;22934;-77
2022/12/10 07:30:00;;;;;;;52.20;46.50;;;;;;;0.65;74.61;99597.59;108256;1280;23058;-76
2022/12/10 07:32:29;;;;;;;52.80;45.50;;;;;;;0.64;74.64;99597.27;108272;1281;23643;-76
2022/12/10 07:34:58;;;;;;;57.10;47.40;;;;;;;0.63;74.59;99591.62;108478;1280;21959;-77
2022/12/10 07:37:26;;;;;;;52.10;46.40;;;;;;;0.63;74.64;99589.56;108449;1280;21946;-76
2022/12/10 07:39:56;;;;;;;52.10;46.40;;;;;;;0.65;74.64;99591.09;108368;1278;21966;-77
2022/12/10 07:42:24;;;;;;;53.60;46.30;;;;;;;0.69;74.71;99594.65;108497;1280;22011;-78
2022/12/10 07:44:53;;;;;;;52.30;45.80;;;;;;;0.73;74.76;99597.50;108504;1278;23064;-77
2022/12/10 07:47:22;;;;;;;53.50;46.10;;;;;;;0.76;74.68;99596.45;108208;1280;23669;-79
2022/12/10 07:49:51;;;;;;;49.90;44.60;;;;;;;0.80;74.61;99600.19;108474;1280;21949;-80
2022/12/10 07:52:20;;;;;;;53.20;46.00;;;;;;;0.81;74.52;99602.74;108307;1283;22011;-77
2022/12/10 07:54:49;;;;;;;54.80;46.60;;;;;;;0.82;74.48;99603.08;108508;1280;21908;-78
2022/12/10 07:57:18;;;;;;;60.80;46.80;;;;;;;0.82;74.36;99598.79;108367;1281;21952;-77
2022/12/10 07:59:47;;;;;;;48.90;43.60;;;;;;;0.81;74.39;99598.63;108196;1283;21938;-75
2022/12/10 08:02:15;;;;;;;157.30;55.30;;;;;;;0.81;74.28;99596.23;108533;1280;23581;-77
2022/12/10 08:04:44;;;;;;;53.30;46.60;;;;;;;0.82;74.24;99601.02;108455;1280;22001;-78
2022/12/10 08:07:13;;;;;;;51.20;45.30;;;;;;;0.86;74.38;99605.44;108332;1280;23197;-77
2022/12/10 08:09:42;;;;;;;49.80;44.30;;;;;;;0.88;74.21;99607.64;108413;1280;22006;-76
2022/12/10 08:12:11;;;;;;;55.20;46.00;;;;;;;0.90;74.14;99609.16;108363;1281;22115;-77
2022/12/10 08:14:39;;;;;;;57.80;47.90;;;;;;;0.89;74.10;99604.38;108264;1281;23553;-79
2022/12/10 08:17:08;;;;;;;54.00;44.40;;;;;;;0.93;74.14;99607.25;108323;1283;21934;-77
2022/12/10 08:19:37;;;;;;;53.80;44.20;;;;;;;0.95;74.02;99609.98;108459;1277;22403;-77
2022/12/10 08:22:06;;;;;;;54.40;47.10;;;;;;;0.94;73.88;99613.75;108456;1280;23704;-76
2022/12/10 08:24:35;;;;;;;56.90;47.00;;;;;;;0.94;73.93;99613.23;108278;1280;23051;-76
2022/12/10 08:27:04;;;;;;;47.10;41.80;;;;;;;0.95;73.89;99610.65;108361;1280;21933;-76
2022/12/10 08:29:33;;;;;;;54.30;45.40;;;;;;;0.95;73.78;99614.59;108388;1283;22401;-76
2022/12/10 08:32:02;;;;;;;55.40;46.40;;;;;;;0.93;73.77;99618.56;108230;1281;22002;-79
2022/12/10 08:34:31;;;;;;;55.80;44.30;;;;;;;0.94;73.74;99616.31;107399;1281;1205435;-75
2022/12/10 08:36:59;;;;;;;53.70;45.80;;;;;;;0.94;73.62;99619.22;108464;1280;22337;-74
2022/12/10 08:39:28;;;;;;;63.70;49.90;;;;;;;0.89;73.53;99622.70;108296;1283;23579;-77
2022/12/10 08:41:57;;;;;;;58.10;46.20;;;;;;;0.87;73.48;99623.92;108367;1280;23607;-76
2022/12/10 08:44:26;;;;;;;56.70;45.90;;;;;;;0.84;73.46;99621.05;108373;1280;21934;-77
2022/12/10 08:46:54;;;;;;;57.00;48.80;;;;;;;0.83;73.48;99619.86;108219;1281;21936;-75
2022/12/10 08:49:23;;;;;;;58.60;48.90;;;;;;;0.82;73.50;99621.40;107787;1286;23677;-75
2022/12/10 08:51:52;;;;;;;63.00;50.80;;;;;;;0.82;73.46;99626.72;107975;1286;22410;-76
2022/12/10 08:54:21;;;;;;;62.70;51.40;;;;;;;0.81;73.50;99628.77;107651;1290;22079;-77
2022/12/10 08:56:50;;;;;;;64.90;52.40;;;;;;;0.81;73.60;99632.20;107537;1289;23620;-76
2022/12/10 08:59:19;;;;;;;65.70;54.30;;;;;;;0.85;73.59;99634.39;107649;1289;23611;-77
2022/12/10 09:01:48;;;;;;;70.40;56.90;;;;;;;0.86;73.44;99635.93;107523;1291;21952;-76
2022/12/10 09:04:24;;;;;;;66.80;52.80;;;;;;;0.88;73.53;99644.30;107289;1289;21946;-77
2022/12/10 09:06:53;;;;;;;68.10;57.30;;;;;;;0.90;73.48;99648.05;107758;1289;21939;-77
2022/12/10 09:09:21;;;;;;;68.10;53.90;;;;;;;0.88;73.34;99648.58;108102;1285;22047;-77
2022/12/10 09:11:50;;;;;;;64.30;52.70;;;;;;;0.91;73.40;99649.08;108270;1283;22889;-77
2022/12/10 09:14:19;;;;;;;60.80;49.90;;;;;;;0.93;73.40;99643.40;108123;1286;21952;-78
2022/12/10 09:16:48;;;;;;;63.30;51.40;;;;;;;0.93;73.31;99644.42;108099;1284;23673;-77
2022/12/10 09:19:17;;;;;;;62.40;49.30;;;;;;;0.94;73.36;99639.27;108092;1283;21940;-77
2022/12/10 09:21:49;;;;;;;57.20;46.20;;;;;;;0.96;73.36;99640.27;108055;1286;23220;-77
2022/12/10 09:24:18;;;;;;;61.10;49.00;;;;;;;0.96;73.27;99643.02;108139;1284;21944;-76
2022/12/10 09:26:47;;;;;;;64.30;51.00;;;;;;;0.97;73.22;99642.84;108049;1283;23001;-77
2022/12/10 09:29:16;;;;;;;60.40;49.70;;;;;;;0.99;73.25;99643.17;108052;1288;22040;-76
2022/12/10 09:31:50;;;;;;;58.20;48.80;;;;;;;1.03;73.18;99640.55;107546;1287;22004;-76
2022/12/10 09:34:19;;;;;;;58.00;47.80;;;;;;;1.03;73.11;99636.27;107652;1287;21945;-76
2022/12/10 09:36:48;;;;;;;58.30;48.40;;;;;;;1.03;73.02;99637.47;108044;1286;21951;-77
2022/12/10 09:39:17;;;;;;;56.20;47.40;;;;;;;1.02;72.93;99635.09;108012;1286;22638;-77
2022/12/10 09:42:13;;;;;;;55.20;44.30;;;;;;;1.02;72.91;99632.00;107804;1289;21948;-77
2022/12/10 09:45:20;;;;;;;61.30;48.90;;;;;;;1.04;72.96;99636.09;107947;1289;22427;-78
2022/12/10 09:48:20;;;;;;;59.80;45.50;;;;;;;1.05;73.05;99630.42;107636;1283;22064;-76
2022/12/10 09:51:24;;;;;;;57.00;45.80;;;;;;;1.06;72.91;99622.19;108060;1284;21967;-77
2022/12/10 09:53:59;;;;;;;61.30;48.10;;;;;;;1.08;72.91;99619.25;107702;1289;21947;-77
2022/12/10 09:56:34;;;;;;;57.30;47.60;;;;;;;1.12;72.88;99616.29;107405;1295;22423;-77
2022/12/10 09:59:18;;;;;;;59.00;45.90;;;;;;;1.17;72.82;99614.52;107274;1295;21980;-77
2022/12/10 10:01:57;;;;;;;57.80;46.30;;;;;;;1.20;72.74;99614.14;107100;1295;22738;-77
2022/12/10 10:04:25;;;;;;;56.30;45.80;;;;;;;1.22;72.62;99615.34;107698;1291;21958;-77
2022/12/10 10:06:56;;;;;;;59.10;48.10;;;;;;;1.23;72.57;99612.40;107424;1295;21973;-77
2022/12/10 10:09:25;;;;;;;56.10;43.80;;;;;;;1.27;72.43;99613.90;107449;1295;22570;-77
2022/12/10 10:11:55;;;;;;;56.70;45.80;;;;;;;1.28;72.40;99610.29;107138;1291;21959;-76
2022/12/10 10:14:28;;;;;;;59.20;47.60;;;;;;;1.30;72.41;99608.04;107561;1287;22304;-77
2022/12/10 10:17:07;;;;;;;64.00;50.00;;;;;;;1.36;72.42;99604.70;107971;1287;24438;-77
2022/12/10 10:19:38;;;;;;;60.50;46.90;;;;;;;1.40;72.30;99606.54;107819;1287;21947;-77
2022/12/10 10:22:10;;;;;;;56.30;46.60;;;;;;;1.41;72.08;99606.89;107772;1289;22787;-76
2022/12/10 10:24:45;;;;;;;54.40;44.00;;;;;;;1.38;72.01;99607.42;107841;1287;23510;-76
2022/12/10 10:27:24;;;;;;;57.70;47.20;;;;;;;1.36;71.88;99604.54;107756;1289;23075;-80
2022/12/10 10:29:56;;;;;;;63.70;48.80;;;;;;;1.36;71.93;99596.14;108116;1286;21946;-76
2022/12/10 10:32:37;;;;;;;62.40;50.30;;;;;;;1.41;71.94;99590.59;108407;1283;23682;-76
2022/12/10 10:35:06;;;;;;;61.80;46.50;;;;;;;1.46;71.89;99591.55;108293;1284;21948;-75
2022/12/10 10:37:35;;;;;;;58.30;45.50;;;;;;;1.48;71.74;99595.80;108362;1273;21950;-75
2022/12/10 10:40:04;;;;;;;62.30;47.20;;;;;;;1.51;71.72;99595.60;108159;1280;23091;-75
2022/12/10 10:42:41;;;;;;;58.70;46.50;;;;;;;1.54;71.66;99596.08;108500;1283;22391;-77
2022/12/10 10:45:43;;;;;;;56.50;44.10;;;;;;;1.55;71.65;99594.02;108652;1280;22268;-76
2022/12/10 10:48:13;;;;;;;63.10;48.50;;;;;;;1.55;71.57;99593.14;108506;1285;23565;-76
2022/12/10 10:51:20;;;;;;;62.80;49.90;;;;;;;1.57;71.51;99592.95;108504;1283;21950;-77
2022/12/10 10:53:54;;;;;;;58.20;46.30;;;;;;;1.57;71.42;99595.53;107751;1289;22915;-76
2022/12/10 10:56:41;;;;;;;55.90;45.20;;;;;;;1.58;71.29;99593.11;107348;1292;23743;-76
2022/12/10 10:59:13;;;;;;;66.10;49.60;;;;;;;1.55;71.10;99586.97;107511;1294;23057;-77
2022/12/10 11:01:49;;;;;;;62.70;47.90;;;;;;;1.55;71.17;99583.54;107675;1292;22267;-79
2022/12/10 11:04:47;;;;;;;61.80;47.70;;;;;;;1.55;71.23;99583.38;107416;1295;22045;-77
2022/12/10 11:07:38;;;;;;;53.50;41.70;;;;;;;1.55;71.22;99585.42;107457;1295;21967;-77
2022/12/10 11:10:24;;;;;;;53.70;41.80;;;;;;;1.54;71.22;99584.07;107218;1297;23005;-76
2022/12/10 11:13:17;;;;;;;57.00;44.20;;;;;;;1.54;71.14;99583.21;107458;1295;23698;-75
2022/12/10 11:15:56;;;;;;;61.80;44.60;;;;;;;1.54;71.08;99579.10;107409;1289;21936;-78
2022/12/10 11:18:35;;;;;;;65.00;49.80;;;;;;;1.51;71.03;99579.81;107707;1283;22074;-79
2022/12/10 11:21:13;;;;;;;55.50;46.90;;;;;;;1.51;71.05;99579.48;107497;1286;23623;-79
2022/12/10 11:23:47;;;;;;;55.80;44.40;;;;;;;1.52;71.04;99576.21;107911;1283;23058;-78
2022/12/10 11:26:57;;;;;;;58.30;46.70;;;;;;;1.52;71.09;99575.52;107860;1283;21945;-77
2022/12/10 11:29:59;;;;;;;59.70;46.40;;;;;;;1.51;71.13;99575.19;107864;1292;21938;-77
2022/12/10 11:32:52;;;;;;;;;;;;;;;1.50;71.15;99576.58;108646;1275;22903;-79
2022/12/10 11:36:02;;;;;;;64.30;47.00;;;;;;;1.44;71.39;99577.70;108657;1273;23779;-78
2022/12/10 11:38:56;;;;;;;66.50;46.10;;;;;;;1.46;71.44;99573.89;107876;1280;23674;-77
2022/12/10 11:41:53;;;;;;;62.90;48.90;;;;;;;1.48;71.24;99573.34;107948;1283;22849;-80
2022/12/10 11:44:48;;;;;;;60.40;45.80;;;;;;;1.49;71.34;99569.91;108104;1277;21950;-75
2022/12/10 11:47:50;;;;;;;62.80;47.60;;;;;;;1.55;71.46;99568.80;107931;1279;23077;-78
2022/12/10 11:50:28;;;;;;;66.80;48.90;;;;;;;1.64;71.53;99575.02;107896;1288;21948;-79
2022/12/10 11:53:16;;;;;;;72.20;51.90;;;;;;;1.73;71.52;99579.34;107725;1276;23067;-79
2022/12/10 11:56:02;;;;;;;68.10;53.20;;;;;;;1.76;71.14;99583.77;107695;1291;21968;-81
2022/12/10 11:58:57;;;;;;;68.40;48.80;;;;;;;1.78;71.09;99587.53;108583;1281;21972;-80